EW3266 Weather Reports


Display with metric or nautical units.
time (UTC)temp
F
wind
direction
speed
MPH
gust
MPH
rain 1hr
in
rain 24hr
in
rain mn
in
humidity
%
barometer
mb
20201201181558 61 138 9.0 13.0 0.00 0.00 0.00 14 1024.0
20201201180114 59 123 9.0 11.0 0.00 0.00 0.00 16 1024.0
20201201174548 55 45 8.0 10.0 0.00 0.00 0.00 23 1024.3
20201201173021 53 53 7.0 10.0 0.00 0.00 0.00 25 1024.3
20201201171518 53 76 3.0 7.0 0.00 0.00 0.00 24 1024.5
20201201170043 51 61 3.0 4.0 0.00 0.00 0.00 27 1024.6
20201201164723 49 59 3.0 5.0 0.00 0.00 0.00 29 1024.8
20201201163337 48 5 2.0 4.0 0.00 0.00 0.00 34 1024.7
20201201161615 47 61 1.0 2.0 0.00 0.00 0.00 32 1024.5
20201201160054 44 140 1.0 3.0 0.00 0.00 0.00 34 1024.3
20201201154607 41 128 2.0 4.0 0.00 0.00 0.00 36 1024.5
20201201153121 37 131 4.0 5.0 0.00 0.00 0.00 40 1024.4
20201201151537 36 200 1.0 5.0 0.00 0.00 0.00 39 1024.4
20201201150119 36 192 3.0 5.0 0.00 0.00 0.00 40 1024.3
20201201144540 35 194 3.0 5.0 0.00 0.00 0.00 41 1024.2
20201201143035 34 196 4.0 5.0 0.00 0.00 0.00 42 1024.2
20201201141543 35 194 3.0 5.0 0.00 0.00 0.00 41 1024.0
20201201140041 34 185 2.0 5.0 0.00 0.00 0.00 40 1023.9
20201201134859 38 142 3.0 6.0 0.00 0.00 0.00 38 1023.6
20201201133020 39 57 2.0 8.0 0.00 0.00 0.00 39 1023.5
20201201130009 42 287 10.0 13.0 0.00 0.00 0.00 34 1022.8
20201201124515 40 272 8.0 12.0 0.00 0.00 0.00 36 1023.1
20201201123146 42 284 9.0 13.0 0.00 0.00 0.00 34 1023.0
20201201121653 42 286 9.0 13.0 0.00 0.00 0.00 35 1023.1
20201201120204 38 286 1.0 4.0 0.00 0.00 0.00 38 1023.1
20201201114650 38 145 1.0 2.0 0.00 0.00 0.00 38 1023.1
20201201113201 39 115 0.0 3.0 0.00 0.00 0.00 36 1023.3
20201201111745 38 249 3.0 5.0 0.00 0.00 0.00 38 1023.5
20201201104644 38 128 4.0 7.0 0.00 0.00 0.00 37 1023.7
20201201103120 40 271 5.0 8.0 0.00 0.00 0.00 35 1023.9
20201201101639 38 169 2.0 3.0 0.00 0.00 0.00 37 1024.1
20201201100229 41 286 2.0 9.0 0.00 0.00 0.00 36 1023.9
20201201094629 41 309 2.0 6.0 0.00 0.00 0.00 35 1024.3
20201201093057 38 240 0.0 2.0 0.00 0.00 0.00 36 1024.3
20201201090059 39 198 4.0 6.0 0.00 0.00 0.00 36 1024.2
20201201084637 37 198 5.0 8.0 0.00 0.00 0.00 39 1024.1
20201201080038 37 195 4.0 6.0 0.00 0.00 0.00 43 1023.9
20201201074536 40 92 2.0 7.0 0.00 0.00 0.00 45 1024.1
20201201073014 37 306 4.0 7.0 0.00 0.00 0.00 58 1024.2
20201201071523 34 158 2.0 3.0 0.00 0.00 0.00 56 1024.0
20201201070027 35 194 0.0 3.0 0.00 0.00 0.00 52 1023.8
20201201064533 35 261 0.0 3.0 0.00 0.00 0.00 47 1023.9
20201201061511 37 192 0.0 4.0 0.00 0.00 0.00 37 1023.9
20201201053150 35 151 3.0 4.0 0.00 0.00 0.00 42 1023.9
20201201051622 36 160 3.0 5.0 0.00 0.00 0.00 45 1023.9
20201201050220 36 111 2.0 3.0 0.00 0.00 0.00 40 1023.8
20201201044631 37 202 0.0 2.0 0.00 0.00 0.00 42 1023.6
20201201044536 37 207 0.0 2.0 0.00 0.00 0.00 42 1023.6
20201201041627 38 313 0.0 6.0 0.00 0.00 0.00 48 1023.8
20201201040117 36 119 3.0 4.0 0.00 0.00 0.00 49 1023.9
20201201034747 39 247 3.0 7.0 0.00 0.00 0.00 47 1023.9
20201201033053 40 232 3.0 5.0 0.00 0.00 0.00 44 1023.9
20201201031558 40 334 1.0 4.0 0.00 0.00 0.00 43 1023.7
20201201030121 39 319 0.0 3.0 0.00 0.00 0.00 42 1023.8
20201201023107 39 248 3.0 5.0 0.00 0.00 0.00 50 1023.2
20201201021608 40 146 2.0 4.0 0.00 0.00 0.00 48 1023.1
20201201014600 44 288 10.0 14.0 0.00 0.00 0.00 41 1023.0
20201201013208 41 216 0.0 2.0 0.00 0.00 0.00 45 1022.8
20201201010101 43 207 3.0 5.0 0.00 0.00 0.00 37 1022.6
20201201004545 44 173 4.0 5.0 0.00 0.00 0.00 35 1022.7
20201201003041 45 205 2.0 5.0 0.00 0.00 0.00 35 1022.6
20201201001547 46 213 3.0 5.0 0.00 0.00 0.00 33 1022.6
20201130234539 56 199 2.0 5.0 0.00 0.00 0.00 24 1022.4
20201130233034 56 294 3.0 8.0 0.00 0.00 0.00 29 1022.4
20201130231547 56 290 6.0 9.0 0.00 0.00 0.00 29 1022.3
20201130230100 56 277 8.0 11.0 0.00 0.00 0.00 29 1022.4
20201130224519 57 274 9.0 13.0 0.00 0.00 0.00 26 1022.3
20201130223026 56 276 9.0 13.0 0.00 0.00 0.00 24 1022.2
20201130221545 56 288 9.0 11.0 0.00 0.00 0.00 25 1022.4
20201130220116 56 295 7.0 11.0 0.00 0.00 0.00 23 1022.6
20201130214519 57 279 9.0 12.0 0.00 0.00 0.00 22 1022.5
20201130213028 57 303 7.0 13.0 0.00 0.00 0.00 21 1022.6
20201130211511 58 289 8.0 12.0 0.00 0.00 0.00 23 1022.7
20201130210322 58 301 8.0 10.0 0.00 0.00 0.00 22 1022.9
20201130204752 57 307 8.0 11.0 0.00 0.00 0.00 21 1023.2
20201130203147 57 298 9.0 13.0 0.00 0.00 0.00 22 1023.4
20201130201722 58 292 10.0 15.0 0.00 0.00 0.00 22 1024.0
20201130200157 61 101 1.0 7.0 0.00 0.00 0.00 15 1023.8
20201130194633 61 150 5.0 8.0 0.00 0.00 0.00 15 1023.9
20201130193243 60 115 7.0 11.0 0.00 0.00 0.00 16 1023.8
20201130191609 60 97 8.0 12.0 0.00 0.00 0.00 16 1024.1
20201130190202 60 113 9.0 13.0 0.00 0.00 0.00 16 1024.3
20201130184739 59 105 10.0 15.0 0.00 0.00 0.00 16 1024.5
20201130183115 59 123 9.0 14.0 0.00 0.00 0.00 17 1024.6